sensor_id;sensor_type;location;lat;lon;timestamp;pressure;altitude;pressure_sealevel;temperature;humidity
7660;BME280;3872;47.902;8.162;2023-09-18T00:01:01;91679.25;;;16.81;100.00
7660;BME280;3872;47.902;8.162;2023-09-18T00:03:28;91675.50;;;16.70;100.00
7660;BME280;3872;47.902;8.162;2023-09-18T00:05:54;91669.53;;;16.37;100.00
7660;BME280;3872;47.902;8.162;2023-09-18T00:08:21;91665.44;;;16.27;100.00
7660;BME280;3872;47.902;8.162;2023-09-18T00:10:49;91656.28;;;16.00;100.00
7660;BME280;3872;47.902;8.162;2023-09-18T00:13:17;91677.69;;;16.56;100.00
7660;BME280;3872;47.902;8.162;2023-09-18T00:15:44;91671.72;;;16.59;100.00
7660;BME280;3872;47.902;8.162;2023-09-18T00:18:13;91691.34;;;15.28;100.00
7660;BME280;3872;47.902;8.162;2023-09-18T00:20:40;91649.19;;;16.29;100.00
7660;BME280;3872;47.902;8.162;2023-09-18T00:23:08;91636.03;;;16.20;100.00
7660;BME280;3872;47.902;8.162;2023-09-18T00:25:34;91648.75;;;16.39;100.00
7660;BME280;3872;47.902;8.162;2023-09-18T00:28:02;91634.09;;;16.57;100.00
7660;BME280;3872;47.902;8.162;2023-09-18T00:30:30;91609.13;;;16.46;100.00
7660;BME280;3872;47.902;8.162;2023-09-18T00:32:57;91583.28;;;16.06;100.00
7660;BME280;3872;47.902;8.162;2023-09-18T00:35:24;91572.78;;;16.10;100.00
7660;BME280;3872;47.902;8.162;2023-09-18T00:37:50;91568.06;;;16.43;100.00
7660;BME280;3872;47.902;8.162;2023-09-18T00:40:18;91568.38;;;16.54;100.00
7660;BME280;3872;47.902;8.162;2023-09-18T00:42:45;91574.53;;;16.70;100.00
7660;BME280;3872;47.902;8.162;2023-09-18T00:45:11;91585.84;;;15.79;100.00
7660;BME280;3872;47.902;8.162;2023-09-18T00:47:39;91579.41;;;15.92;100.00
7660;BME280;3872;47.902;8.162;2023-09-18T00:50:09;91594.16;;;16.94;100.00
7660;BME280;3872;47.902;8.162;2023-09-18T00:52:37;91580.31;;;17.16;100.00
7660;BME280;3872;47.902;8.162;2023-09-18T00:55:06;91581.56;;;17.06;100.00
7660;BME280;3872;47.902;8.162;2023-09-18T00:57:33;91613.78;;;17.17;100.00
7660;BME280;3872;47.902;8.162;2023-09-18T01:00:01;91623.88;;;16.83;100.00
7660;BME280;3872;47.902;8.162;2023-09-18T01:02:28;91618.91;;;17.10;100.00
7660;BME280;3872;47.902;8.162;2023-09-18T01:04:56;91599.25;;;17.14;100.00
7660;BME280;3872;47.902;8.162;2023-09-18T01:07:23;91583.34;;;17.30;100.00
7660;BME280;3872;47.902;8.162;2023-09-18T01:09:50;91582.66;;;17.17;100.00
7660;BME280;3872;47.902;8.162;2023-09-18T01:12:19;91572.44;;;17.35;100.00
7660;BME280;3872;47.902;8.162;2023-09-18T01:14:57;91570.41;;;17.60;100.00
7660;BME280;3872;47.902;8.162;2023-09-18T01:17:28;91585.31;;;17.61;100.00
7660;BME280;3872;47.902;8.162;2023-09-18T01:19:56;91587.06;;;17.57;100.00
7660;BME280;3872;47.902;8.162;2023-09-18T01:22:23;91586.06;;;17.62;100.00
7660;BME280;3872;47.902;8.162;2023-09-18T01:24:51;91583.28;;;16.71;100.00
7660;BME280;3872;47.902;8.162;2023-09-18T01:27:18;91587.63;;;16.91;100.00
7660;BME280;3872;47.902;8.162;2023-09-18T01:29:45;91597.00;;;17.01;100.00
7660;BME280;3872;47.902;8.162;2023-09-18T01:32:12;91595.59;;;16.91;100.00
7660;BME280;3872;47.902;8.162;2023-09-18T01:34:41;91608.88;;;16.91;100.00
7660;BME280;3872;47.902;8.162;2023-09-18T01:37:10;91617.88;;;17.14;100.00
7660;BME280;3872;47.902;8.162;2023-09-18T01:39:39;91628.81;;;17.69;100.00
7660;BME280;3872;47.902;8.162;2023-09-18T01:42:07;91646.13;;;17.19;100.00
7660;BME280;3872;47.902;8.162;2023-09-18T01:44:35;91633.38;;;17.68;100.00
7660;BME280;3872;47.902;8.162;2023-09-18T01:47:06;91621.91;;;17.52;100.00
7660;BME280;3872;47.902;8.162;2023-09-18T01:49:33;91606.56;;;17.92;100.00
7660;BME280;3872;47.902;8.162;2023-09-18T01:52:00;91578.94;;;17.97;100.00
7660;BME280;3872;47.902;8.162;2023-09-18T01:54:27;91593.41;;;18.15;100.00
7660;BME280;3872;47.902;8.162;2023-09-18T01:56:54;91604.28;;;17.75;100.00
7660;BME280;3872;47.902;8.162;2023-09-18T01:59:22;91622.78;;;17.28;100.00
7660;BME280;3872;47.902;8.162;2023-09-18T02:01:49;91615.50;;;18.00;100.00
7660;BME280;3872;47.902;8.162;2023-09-18T02:04:16;91599.44;;;18.47;100.00
7660;BME280;3872;47.902;8.162;2023-09-18T02:06:42;91573.63;;;18.32;100.00
7660;BME280;3872;47.902;8.162;2023-09-18T02:09:10;91564.22;;;18.03;100.00
7660;BME280;3872;47.902;8.162;2023-09-18T02:11:38;91562.81;;;18.25;100.00
7660;BME280;3872;47.902;8.162;2023-09-18T02:14:06;91567.75;;;17.44;100.00
7660;BME280;3872;47.902;8.162;2023-09-18T02:16:37;91587.47;;;18.22;100.00
7660;BME280;3872;47.902;8.162;2023-09-18T02:19:06;91612.16;;;18.03;100.00
7660;BME280;3872;47.902;8.162;2023-09-18T02:21:33;91606.84;;;18.03;100.00
7660;BME280;3872;47.902;8.162;2023-09-18T02:23:59;91607.78;;;18.46;100.00
7660;BME280;3872;47.902;8.162;2023-09-18T02:26:26;91599.50;;;18.66;100.00
7660;BME280;3872;47.902;8.162;2023-09-18T02:28:53;91585.97;;;18.75;100.00
7660;BME280;3872;47.902;8.162;2023-09-18T02:31:20;91599.66;;;18.93;100.00
7660;BME280;3872;47.902;8.162;2023-09-18T02:33:48;91629.59;;;18.67;100.00
7660;BME280;3872;47.902;8.162;2023-09-18T02:36:15;91664.34;;;17.92;100.00
7660;BME280;3872;47.902;8.162;2023-09-18T02:38:42;91685.47;;;18.48;100.00
7660;BME280;3872;47.902;8.162;2023-09-18T02:41:09;91652.88;;;18.70;100.00
7660;BME280;3872;47.902;8.162;2023-09-18T02:43:35;91648.22;;;19.21;100.00
7660;BME280;3872;47.902;8.162;2023-09-18T02:46:03;91656.50;;;19.16;100.00
7660;BME280;3872;47.902;8.162;2023-09-18T02:48:30;91680.16;;;19.17;100.00
7660;BME280;3872;47.902;8.162;2023-09-18T02:50:58;91691.56;;;18.99;100.00
7660;BME280;3872;47.902;8.162;2023-09-18T02:53:26;91694.63;;;19.55;100.00
7660;BME280;3872;47.902;8.162;2023-09-18T02:55:55;91697.72;;;19.99;100.00
7660;BME280;3872;47.902;8.162;2023-09-18T02:58:22;91696.13;;;19.94;100.00
7660;BME280;3872;47.902;8.162;2023-09-18T03:00:52;91704.00;;;20.52;100.00
7660;BME280;3872;47.902;8.162;2023-09-18T03:03:20;91693.91;;;20.42;100.00
7660;BME280;3872;47.902;8.162;2023-09-18T03:05:47;91694.47;;;20.55;100.00
7660;BME280;3872;47.902;8.162;2023-09-18T03:08:15;91699.25;;;20.42;100.00
7660;BME280;3872;47.902;8.162;2023-09-18T03:10:42;91695.88;;;20.71;100.00
7660;BME280;3872;47.902;8.162;2023-09-18T03:13:11;91679.09;;;21.27;100.00
7660;BME280;3872;47.902;8.162;2023-09-18T03:15:38;91667.97;;;21.25;100.00
7660;BME280;3872;47.902;8.162;2023-09-18T03:18:05;91664.75;;;20.86;100.00
7660;BME280;3872;47.902;8.162;2023-09-18T03:20:33;91647.16;;;20.85;100.00
7660;BME280;3872;47.902;8.162;2023-09-18T03:23:01;91659.22;;;20.72;100.00
7660;BME280;3872;47.902;8.162;2023-09-18T03:25:29;91648.34;;;20.12;100.00
7660;BME280;3872;47.902;8.162;2023-09-18T03:27:56;91639.94;;;20.59;100.00
7660;BME280;3872;47.902;8.162;2023-09-18T03:30:28;91633.59;;;20.71;100.00
7660;BME280;3872;47.902;8.162;2023-09-18T03:32:55;91617.56;;;20.71;100.00
7660;BME280;3872;47.902;8.162;2023-09-18T03:35:23;91615.50;;;20.35;100.00
7660;BME280;3872;47.902;8.162;2023-09-18T03:37:51;91607.81;;;20.56;100.00
7660;BME280;3872;47.902;8.162;2023-09-18T03:40:19;91596.41;;;20.59;100.00
7660;BME280;3872;47.902;8.162;2023-09-18T03:42:47;91582.75;;;20.38;100.00
7660;BME280;3872;47.902;8.162;2023-09-18T03:45:17;91578.75;;;20.28;100.00
7660;BME280;3872;47.902;8.162;2023-09-18T03:47:46;91568.28;;;20.16;100.00
7660;BME280;3872;47.902;8.162;2023-09-18T03:50:15;91574.38;;;19.67;100.00
7660;BME280;3872;47.902;8.162;2023-09-18T03:52:42;91570.66;;;19.10;100.00
7660;BME280;3872;47.902;8.162;2023-09-18T03:55:09;91558.13;;;19.53;100.00
7660;BME280;3872;47.902;8.162;2023-09-18T03:57:35;91552.72;;;19.72;100.00
7660;BME280;3872;47.902;8.162;2023-09-18T04:00:05;91545.56;;;20.03;100.00
7660;BME280;3872;47.902;8.162;2023-09-18T04:02:37;91527.63;;;20.03;100.00
7660;BME280;3872;47.902;8.162;2023-09-18T04:05:04;91544.19;;;19.89;100.00
7660;BME280;3872;47.902;8.162;2023-09-18T04:07:33;91551.63;;;19.77;100.00
7660;BME280;3872;47.902;8.162;2023-09-18T04:10:00;91554.66;;;19.75;100.00
7660;BME280;3872;47.902;8.162;2023-09-18T04:12:27;91551.94;;;19.49;100.00
7660;BME280;3872;47.902;8.162;2023-09-18T04:14:54;91555.19;;;19.20;100.00
7660;BME280;3872;47.902;8.162;2023-09-18T04:17:23;91565.81;;;19.58;100.00
7660;BME280;3872;47.902;8.162;2023-09-18T04:19:54;91563.97;;;19.62;100.00
7660;BME280;3872;47.902;8.162;2023-09-18T04:22:21;91577.69;;;18.80;100.00
7660;BME280;3872;47.902;8.162;2023-09-18T04:24:47;91580.84;;;19.05;100.00
7660;BME280;3872;47.902;8.162;2023-09-18T04:27:14;91574.97;;;19.38;100.00
7660;BME280;3872;47.902;8.162;2023-09-18T04:29:41;91579.19;;;19.20;100.00
7660;BME280;3872;47.902;8.162;2023-09-18T04:32:07;91579.00;;;19.28;100.00
7660;BME280;3872;47.902;8.162;2023-09-18T04:34:35;91573.56;;;19.44;100.00
7660;BME280;3872;47.902;8.162;2023-09-18T04:37:03;91567.63;;;19.31;100.00
7660;BME280;3872;47.902;8.162;2023-09-18T04:39:31;91562.84;;;18.44;100.00
7660;BME280;3872;47.902;8.162;2023-09-18T04:42:01;91559.66;;;18.73;100.00
7660;BME280;3872;47.902;8.162;2023-09-18T04:44:29;91550.72;;;19.24;100.00
7660;BME280;3872;47.902;8.162;2023-09-18T04:46:56;91574.59;;;18.59;100.00
7660;BME280;3872;47.902;8.162;2023-09-18T04:49:23;91585.41;;;18.50;100.00
7660;BME280;3872;47.902;8.162;2023-09-18T04:51:51;91582.31;;;18.64;100.00
7660;BME280;3872;47.902;8.162;2023-09-18T04:54:17;91571.38;;;19.07;100.00
7660;BME280;3872;47.902;8.162;2023-09-18T04:56:44;91569.16;;;19.74;100.00
7660;BME280;3872;47.902;8.162;2023-09-18T04:59:11;91560.91;;;19.60;100.00
7660;BME280;3872;47.902;8.162;2023-09-18T05:01:37;91574.31;;;19.86;100.00
7660;BME280;3872;47.902;8.162;2023-09-18T05:04:05;91565.72;;;19.74;100.00
7660;BME280;3872;47.902;8.162;2023-09-18T05:06:31;91573.66;;;19.70;100.00
7660;BME280;3872;47.902;8.162;2023-09-18T05:08:59;91576.78;;;19.99;100.00
7660;BME280;3872;47.902;8.162;2023-09-18T05:11:26;91578.31;;;19.77;100.00
7660;BME280;3872;47.902;8.162;2023-09-18T05:13:52;91583.78;;;19.84;100.00
7660;BME280;3872;47.902;8.162;2023-09-18T05:16:19;91586.44;;;19.84;100.00
7660;BME280;3872;47.902;8.162;2023-09-18T05:18:45;91579.13;;;20.04;100.00
7660;BME280;3872;47.902;8.162;2023-09-18T05:21:12;91574.00;;;19.91;100.00
7660;BME280;3872;47.902;8.162;2023-09-18T05:23:38;91583.09;;;19.87;100.00
7660;BME280;3872;47.902;8.162;2023-09-18T05:26:06;91581.53;;;19.63;100.00
7660;BME280;3872;47.902;8.162;2023-09-18T05:28:33;91578.81;;;18.98;100.00
7660;BME280;3872;47.902;8.162;2023-09-18T05:30:59;91579.44;;;19.11;100.00
7660;BME280;3872;47.902;8.162;2023-09-18T05:33:26;91581.34;;;19.33;100.00
7660;BME280;3872;47.902;8.162;2023-09-18T05:35:52;91585.66;;;19.38;100.00
7660;BME280;3872;47.902;8.162;2023-09-18T05:38:19;91589.19;;;19.23;100.00
7660;BME280;3872;47.902;8.162;2023-09-18T05:40:45;91583.03;;;19.61;100.00
7660;BME280;3872;47.902;8.162;2023-09-18T05:43:13;91583.44;;;19.85;100.00
7660;BME280;3872;47.902;8.162;2023-09-18T05:45:40;91586.81;;;19.60;100.00
7660;BME280;3872;47.902;8.162;2023-09-18T05:48:06;91594.53;;;19.65;100.00
7660;BME280;3872;47.902;8.162;2023-09-18T05:50:35;91592.03;;;19.75;100.00
7660;BME280;3872;47.902;8.162;2023-09-18T05:53:02;91592.16;;;19.17;100.00
7660;BME280;3872;47.902;8.162;2023-09-18T05:55:30;91600.09;;;19.56;100.00
7660;BME280;3872;47.902;8.162;2023-09-18T05:57:56;91597.47;;;19.17;100.00
7660;BME280;3872;47.902;8.162;2023-09-18T06:00:25;91603.13;;;19.35;100.00
7660;BME280;3872;47.902;8.162;2023-09-18T06:02:52;91604.13;;;19.27;100.00
7660;BME280;3872;47.902;8.162;2023-09-18T06:05:18;91603.75;;;19.67;100.00
7660;BME280;3872;47.902;8.162;2023-09-18T06:07:47;91611.19;;;18.97;100.00
7660;BME280;3872;47.902;8.162;2023-09-18T06:10:13;91615.22;;;18.71;100.00
7660;BME280;3872;47.902;8.162;2023-09-18T06:12:40;91626.50;;;18.84;100.00
7660;BME280;3872;47.902;8.162;2023-09-18T06:15:07;91618.84;;;19.40;100.00
7660;BME280;3872;47.902;8.162;2023-09-18T06:17:37;91611.69;;;20.09;100.00
7660;BME280;3872;47.902;8.162;2023-09-18T06:20:05;91623.50;;;18.51;100.00
7660;BME280;3872;47.902;8.162;2023-09-18T06:22:35;91635.84;;;18.24;100.00
7660;BME280;3872;47.902;8.162;2023-09-18T06:25:03;91627.47;;;18.57;100.00
7660;BME280;3872;47.902;8.162;2023-09-18T06:27:29;91627.22;;;19.58;100.00
7660;BME280;3872;47.902;8.162;2023-09-18T06:29:57;91636.13;;;19.88;100.00
7660;BME280;3872;47.902;8.162;2023-09-18T06:32:23;91642.94;;;19.44;100.00
7660;BME280;3872;47.902;8.162;2023-09-18T06:34:51;91637.94;;;19.42;100.00
7660;BME280;3872;47.902;8.162;2023-09-18T06:37:18;91646.88;;;19.50;100.00
7660;BME280;3872;47.902;8.162;2023-09-18T06:39:45;91639.38;;;18.63;100.00
7660;BME280;3872;47.902;8.162;2023-09-18T06:42:12;91633.75;;;19.03;100.00
7660;BME280;3872;47.902;8.162;2023-09-18T06:44:38;91620.22;;;19.31;100.00
7660;BME280;3872;47.902;8.162;2023-09-18T06:47:05;91650.28;;;18.73;100.00
7660;BME280;3872;47.902;8.162;2023-09-18T06:49:31;91658.66;;;18.91;100.00
7660;BME280;3872;47.902;8.162;2023-09-18T06:51:59;91655.34;;;18.98;100.00
7660;BME280;3872;47.902;8.162;2023-09-18T06:54:26;91666.75;;;18.60;100.00
7660;BME280;3872;47.902;8.162;2023-09-18T06:56:52;91663.97;;;19.68;100.00
7660;BME280;3872;47.902;8.162;2023-09-18T06:59:19;91656.28;;;19.63;100.00
7660;BME280;3872;47.902;8.162;2023-09-18T07:01:45;91659.44;;;18.57;100.00
7660;BME280;3872;47.902;8.162;2023-09-18T07:04:12;91666.31;;;18.42;100.00
7660;BME280;3872;47.902;8.162;2023-09-18T07:06:39;91667.63;;;18.83;100.00
7660;BME280;3872;47.902;8.162;2023-09-18T07:09:07;91673.81;;;18.87;100.00
7660;BME280;3872;47.902;8.162;2023-09-18T07:11:37;91677.47;;;18.98;100.00
7660;BME280;3872;47.902;8.162;2023-09-18T07:14:03;91677.72;;;19.67;100.00
7660;BME280;3872;47.902;8.162;2023-09-18T07:16:31;91680.00;;;19.87;100.00
7660;BME280;3872;47.902;8.162;2023-09-18T07:18:57;91682.47;;;20.00;100.00
7660;BME280;3872;47.902;8.162;2023-09-18T07:21:24;91687.22;;;19.87;100.00
7660;BME280;3872;47.902;8.162;2023-09-18T07:23:50;91690.72;;;20.14;100.00
7660;BME280;3872;47.902;8.162;2023-09-18T07:26:18;91691.19;;;19.74;100.00
7660;BME280;3872;47.902;8.162;2023-09-18T07:28:45;91690.78;;;19.94;100.00
7660;BME280;3872;47.902;8.162;2023-09-18T07:31:12;91685.72;;;19.89;100.00
7660;BME280;3872;47.902;8.162;2023-09-18T07:33:40;91690.88;;;19.21;100.00
7660;BME280;3872;47.902;8.162;2023-09-18T07:36:06;91688.31;;;19.63;100.00
7660;BME280;3872;47.902;8.162;2023-09-18T07:38:35;91692.13;;;18.89;100.00
7660;BME280;3872;47.902;8.162;2023-09-18T07:41:01;91690.19;;;17.48;100.00
7660;BME280;3872;47.902;8.162;2023-09-18T07:43:29;91674.25;;;18.23;100.00
7660;BME280;3872;47.902;8.162;2023-09-18T07:45:56;91657.84;;;18.71;100.00
7660;BME280;3872;47.902;8.162;2023-09-18T07:48:25;91651.84;;;18.74;100.00
7660;BME280;3872;47.902;8.162;2023-09-18T07:50:51;91647.09;;;19.22;100.00
7660;BME280;3872;47.902;8.162;2023-09-18T07:53:20;91641.03;;;19.64;100.00
7660;BME280;3872;47.902;8.162;2023-09-18T07:55:47;91635.53;;;19.99;100.00
7660;BME280;3872;47.902;8.162;2023-09-18T07:58:14;91635.84;;;19.93;100.00
7660;BME280;3872;47.902;8.162;2023-09-18T08:00:42;91634.63;;;20.14;100.00
7660;BME280;3872;47.902;8.162;2023-09-18T08:03:09;91646.47;;;20.36;100.00
7660;BME280;3872;47.902;8.162;2023-09-18T08:05:36;91642.31;;;20.38;100.00
7660;BME280;3872;47.902;8.162;2023-09-18T08:08:03;91648.22;;;19.60;100.00
7660;BME280;3872;47.902;8.162;2023-09-18T08:10:30;91639.63;;;19.70;100.00
7660;BME280;3872;47.902;8.162;2023-09-18T08:12:57;91646.44;;;19.90;100.00
7660;BME280;3872;47.902;8.162;2023-09-18T08:15:24;91660.09;;;20.08;100.00
7660;BME280;3872;47.902;8.162;2023-09-18T08:17:52;91679.59;;;19.66;100.00
7660;BME280;3872;47.902;8.162;2023-09-18T08:20:18;91687.44;;;19.78;100.00
7660;BME280;3872;47.902;8.162;2023-09-18T08:22:45;91689.84;;;19.45;100.00
7660;BME280;3872;47.902;8.162;2023-09-18T08:25:13;91693.50;;;19.56;100.00
7660;BME280;3872;47.902;8.162;2023-09-18T08:27:40;91690.19;;;19.82;100.00
7660;BME280;3872;47.902;8.162;2023-09-18T08:30:07;91689.03;;;19.60;100.00
7660;BME280;3872;47.902;8.162;2023-09-18T08:32:35;91710.38;;;19.60;100.00
7660;BME280;3872;47.902;8.162;2023-09-18T08:35:04;91698.97;;;19.44;100.00
7660;BME280;3872;47.902;8.162;2023-09-18T08:37:30;91687.41;;;19.75;100.00
7660;BME280;3872;47.902;8.162;2023-09-18T08:39:57;91679.75;;;19.73;100.00
7660;BME280;3872;47.902;8.162;2023-09-18T08:42:25;91690.50;;;19.38;100.00
7660;BME280;3872;47.902;8.162;2023-09-18T08:44:54;91700.59;;;19.29;100.00
7660;BME280;3872;47.902;8.162;2023-09-18T08:47:22;91714.34;;;18.77;100.00
7660;BME280;3872;47.902;8.162;2023-09-18T08:49:50;91728.44;;;19.12;100.00
7660;BME280;3872;47.902;8.162;2023-09-18T08:52:20;91733.53;;;18.51;100.00
7660;BME280;3872;47.902;8.162;2023-09-18T08:54:47;91745.28;;;18.50;100.00
7660;BME280;3872;47.902;8.162;2023-09-18T08:57:16;91742.44;;;18.12;100.00
7660;BME280;3872;47.902;8.162;2023-09-18T08:59:44;91758.13;;;17.85;100.00
7660;BME280;3872;47.902;8.162;2023-09-18T09:02:11;91762.22;;;18.42;100.00
7660;BME280;3872;47.902;8.162;2023-09-18T09:04:38;91764.66;;;18.63;100.00
7660;BME280;3872;47.902;8.162;2023-09-18T09:07:04;91761.00;;;18.55;100.00
7660;BME280;3872;47.902;8.162;2023-09-18T09:09:33;91762.13;;;19.01;100.00
7660;BME280;3872;47.902;8.162;2023-09-18T09:12:00;91757.41;;;18.79;100.00
7660;BME280;3872;47.902;8.162;2023-09-18T09:14:26;91734.00;;;19.04;100.00
7660;BME280;3872;47.902;8.162;2023-09-18T09:16:55;91724.75;;;19.17;100.00
7660;BME280;3872;47.902;8.162;2023-09-18T09:19:29;91707.91;;;18.62;100.00
7660;BME280;3872;47.902;8.162;2023-09-18T09:21:56;91701.84;;;18.97;100.00
7660;BME280;3872;47.902;8.162;2023-09-18T09:24:37;91690.00;;;18.78;100.00
7660;BME280;3872;47.902;8.162;2023-09-18T09:27:04;91681.28;;;18.47;100.00
7660;BME280;3872;47.902;8.162;2023-09-18T09:29:31;91657.66;;;17.98;100.00
7660;BME280;3872;47.902;8.162;2023-09-18T09:32:11;91624.13;;;18.28;100.00
7660;BME280;3872;47.902;8.162;2023-09-18T09:34:38;91642.84;;;17.53;100.00
7660;BME280;3872;47.902;8.162;2023-09-18T09:37:06;91644.69;;;17.81;100.00
7660;BME280;3872;47.902;8.162;2023-09-18T09:39:33;91629.06;;;18.11;100.00
7660;BME280;3872;47.902;8.162;2023-09-18T09:42:01;91647.44;;;17.84;100.00
7660;BME280;3872;47.902;8.162;2023-09-18T09:44:31;91641.25;;;18.12;100.00
7660;BME280;3872;47.902;8.162;2023-09-18T09:46:59;91642.44;;;18.81;100.00
7660;BME280;3872;47.902;8.162;2023-09-18T09:49:26;91666.59;;;18.21;100.00
7660;BME280;3872;47.902;8.162;2023-09-18T09:51:59;91673.16;;;18.74;100.00
7660;BME280;3872;47.902;8.162;2023-09-18T09:54:35;91682.97;;;19.25;100.00
7660;BME280;3872;47.902;8.162;2023-09-18T09:57:07;91680.03;;;19.10;100.00
7660;BME280;3872;47.902;8.162;2023-09-18T09:59:33;91712.28;;;18.55;100.00
7660;BME280;3872;47.902;8.162;2023-09-18T10:02:00;91712.88;;;19.14;100.00
7660;BME280;3872;47.902;8.162;2023-09-18T10:04:28;91711.53;;;19.24;100.00
7660;BME280;3872;47.902;8.162;2023-09-18T10:07:06;91714.56;;;19.42;100.00
7660;BME280;3872;47.902;8.162;2023-09-18T10:09:35;91698.59;;;19.26;100.00
7660;BME280;3872;47.902;8.162;2023-09-18T10:12:04;91697.97;;;19.33;100.00
7660;BME280;3872;47.902;8.162;2023-09-18T10:14:36;91714.19;;;18.07;100.00
7660;BME280;3872;47.902;8.162;2023-09-18T10:17:16;91688.63;;;18.69;100.00
7660;BME280;3872;47.902;8.162;2023-09-18T10:19:46;91680.50;;;18.97;100.00
7660;BME280;3872;47.902;8.162;2023-09-18T10:22:23;91700.88;;;18.54;100.00
7660;BME280;3872;47.902;8.162;2023-09-18T10:24:54;91678.06;;;18.72;100.00
7660;BME280;3872;47.902;8.162;2023-09-18T10:27:25;91686.78;;;18.22;100.00
7660;BME280;3872;47.902;8.162;2023-09-18T10:29:55;91684.78;;;18.51;100.00
7660;BME280;3872;47.902;8.162;2023-09-18T10:32:22;91686.84;;;18.73;100.00
7660;BME280;3872;47.902;8.162;2023-09-18T10:34:53;91673.94;;;18.75;100.00
7660;BME280;3872;47.902;8.162;2023-09-18T10:37:21;91660.91;;;18.89;100.00
7660;BME280;3872;47.902;8.162;2023-09-18T10:39:49;91639.00;;;18.99;100.00
7660;BME280;3872;47.902;8.162;2023-09-18T10:42:18;91617.97;;;18.75;100.00
7660;BME280;3872;47.902;8.162;2023-09-18T10:44:48;91596.97;;;18.73;100.00
7660;BME280;3872;47.902;8.162;2023-09-18T10:47:17;91578.19;;;18.66;100.00
7660;BME280;3872;47.902;8.162;2023-09-18T10:49:45;91662.03;;;18.37;100.00
7660;BME280;3872;47.902;8.162;2023-09-18T10:52:12;91738.09;;;17.08;100.00
7660;BME280;3872;47.902;8.162;2023-09-18T10:54:39;91722.41;;;17.86;100.00
7660;BME280;3872;47.902;8.162;2023-09-18T10:57:05;91720.91;;;18.32;100.00
7660;BME280;3872;47.902;8.162;2023-09-18T10:59:32;91732.06;;;18.22;100.00
7660;BME280;3872;47.902;8.162;2023-09-18T11:02:02;91737.22;;;18.47;100.00
7660;BME280;3872;47.902;8.162;2023-09-18T11:04:31;91731.59;;;18.05;100.00
7660;BME280;3872;47.902;8.162;2023-09-18T11:07:01;91699.00;;;18.90;100.00
7660;BME280;3872;47.902;8.162;2023-09-18T11:09:31;91696.91;;;18.99;100.00
7660;BME280;3872;47.902;8.162;2023-09-18T11:12:03;91686.44;;;18.90;100.00
7660;BME280;3872;47.902;8.162;2023-09-18T11:14:42;91661.91;;;19.39;100.00
7660;BME280;3872;47.902;8.162;2023-09-18T11:17:33;91632.41;;;19.12;100.00
7660;BME280;3872;47.902;8.162;2023-09-18T11:20:06;91622.81;;;18.89;100.00
7660;BME280;3872;47.902;8.162;2023-09-18T11:22:35;91633.53;;;18.73;100.00
7660;BME280;3872;47.902;8.162;2023-09-18T11:25:37;91646.72;;;19.04;100.00
7660;BME280;3872;47.902;8.162;2023-09-18T11:28:04;91659.22;;;18.81;100.00
7660;BME280;3872;47.902;8.162;2023-09-18T11:30:33;91694.44;;;18.39;100.00
7660;BME280;3872;47.902;8.162;2023-09-18T11:33:02;91688.94;;;19.18;100.00
7660;BME280;3872;47.902;8.162;2023-09-18T11:35:30;91692.63;;;19.33;100.00
7660;BME280;3872;47.902;8.162;2023-09-18T11:38:05;91674.78;;;19.94;100.00
7660;BME280;3872;47.902;8.162;2023-09-18T11:40:33;91696.28;;;19.82;100.00
7660;BME280;3872;47.902;8.162;2023-09-18T11:43:27;91686.16;;;19.91;100.00
7660;BME280;3872;47.902;8.162;2023-09-18T11:45:56;91686.16;;;19.91;100.00
7660;BME280;3872;47.902;8.162;2023-09-18T11:48:24;91689.53;;;20.11;100.00
7660;BME280;3872;47.902;8.162;2023-09-18T11:50:56;91675.56;;;19.76;100.00
7660;BME280;3872;47.902;8.162;2023-09-18T11:53:24;91675.25;;;20.00;100.00
7660;BME280;3872;47.902;8.162;2023-09-18T11:55:51;91677.72;;;20.58;100.00
7660;BME280;3872;47.902;8.162;2023-09-18T11:58:17;91672.34;;;20.31;100.00
7660;BME280;3872;47.902;8.162;2023-09-18T12:00:49;91660.75;;;20.24;100.00
7660;BME280;3872;47.902;8.162;2023-09-18T12:03:17;91661.88;;;19.77;100.00
7660;BME280;3872;47.902;8.162;2023-09-18T12:05:52;91652.44;;;20.52;100.00
7660;BME280;3872;47.902;8.162;2023-09-18T12:08:22;91650.38;;;20.98;100.00
7660;BME280;3872;47.902;8.162;2023-09-18T12:10:51;91662.00;;;21.09;94.97
7660;BME280;3872;47.902;8.162;2023-09-18T12:13:18;91675.69;;;19.83;100.00
7660;BME280;3872;47.902;8.162;2023-09-18T12:15:45;91668.66;;;20.17;100.00
7660;BME280;3872;47.902;8.162;2023-09-18T12:18:14;91673.78;;;21.31;92.39
7660;BME280;3872;47.902;8.162;2023-09-18T12:20:48;91666.28;;;20.35;100.00
7660;BME280;3872;47.902;8.162;2023-09-18T12:23:15;91649.56;;;21.54;96.58
7660;BME280;3872;47.902;8.162;2023-09-18T12:25:45;91660.50;;;20.32;100.00
7660;BME280;3872;47.902;8.162;2023-09-18T12:28:13;91658.50;;;20.49;98.83
7660;BME280;3872;47.902;8.162;2023-09-18T12:30:40;91651.53;;;21.23;95.33
7660;BME280;3872;47.902;8.162;2023-09-18T12:33:07;91647.13;;;21.11;97.21
7660;BME280;3872;47.902;8.162;2023-09-18T12:35:34;91653.03;;;20.94;100.00
7660;BME280;3872;47.902;8.162;2023-09-18T12:38:01;91654.88;;;21.50;87.19
7660;BME280;3872;47.902;8.162;2023-09-18T12:40:30;91651.50;;;20.67;100.00
7660;BME280;3872;47.902;8.162;2023-09-18T12:42:59;91657.63;;;20.97;94.09
7660;BME280;3872;47.902;8.162;2023-09-18T12:45:26;91670.47;;;20.58;97.92
7660;BME280;3872;47.902;8.162;2023-09-18T12:47:55;91677.97;;;20.49;100.00
7660;BME280;3872;47.902;8.162;2023-09-18T12:50:23;91664.03;;;20.89;97.83
7660;BME280;3872;47.902;8.162;2023-09-18T12:52:50;91660.75;;;21.63;91.34
7660;BME280;3872;47.902;8.162;2023-09-18T12:55:23;91653.75;;;21.88;87.62
7660;BME280;3872;47.902;8.162;2023-09-18T12:57:51;91638.81;;;22.31;81.45
7660;BME280;3872;47.902;8.162;2023-09-18T13:00:21;91636.66;;;22.00;81.95
7660;BME280;3872;47.902;8.162;2023-09-18T13:02:48;91642.97;;;21.81;84.72
7660;BME280;3872;47.902;8.162;2023-09-18T13:05:19;91648.75;;;21.86;85.62
7660;BME280;3872;47.902;8.162;2023-09-18T13:07:46;91637.50;;;22.07;78.38
7660;BME280;3872;47.902;8.162;2023-09-18T13:10:13;91636.06;;;22.72;78.62
7660;BME280;3872;47.902;8.162;2023-09-18T13:12:42;91624.50;;;22.60;77.00
7660;BME280;3872;47.902;8.162;2023-09-18T13:15:09;91623.34;;;22.07;74.13
7660;BME280;3872;47.902;8.162;2023-09-18T13:17:40;91622.16;;;22.52;73.43